createdAt,value
2017-06-20T00:01:22.297Z,87.60
2017-06-20T00:03:50.816Z,87.60
2017-06-20T00:06:19.155Z,87.70
2017-06-20T00:08:53.818Z,87.70
2017-06-20T00:11:35.983Z,87.80
2017-06-20T00:14:03.821Z,87.70
2017-06-20T00:16:32.353Z,87.80
2017-06-20T00:19:00.919Z,87.80
2017-06-20T00:21:36.416Z,88.00
2017-06-20T00:24:13.010Z,87.80
2017-06-20T00:26:41.460Z,87.80
2017-06-20T00:29:10.050Z,88.00
2017-06-20T00:31:39.556Z,88.00
2017-06-20T00:34:07.988Z,88.20
2017-06-20T00:36:36.515Z,88.50
2017-06-20T00:39:04.114Z,88.60
2017-06-20T00:41:32.552Z,88.90
2017-06-20T00:44:01.087Z,89.40
2017-06-20T00:46:37.630Z,88.70
2017-06-20T00:49:06.228Z,88.50
2017-06-20T00:51:35.806Z,88.50
2017-06-20T00:54:04.318Z,88.40
2017-06-20T00:56:32.832Z,88.80
2017-06-20T00:59:01.279Z,88.80
2017-06-20T01:01:43.406Z,88.90
2017-06-20T01:04:15.241Z,89.00
2017-06-20T01:06:44.152Z,89.40
2017-06-20T01:09:13.371Z,89.50
2017-06-20T01:11:41.876Z,89.40
2017-06-20T01:14:10.285Z,89.70
2017-06-20T01:16:38.852Z,89.90
2017-06-20T01:19:15.311Z,90.10
2017-06-20T01:21:44.862Z,90.10
2017-06-20T01:24:13.378Z,90.20
2017-06-20T01:26:50.960Z,90.30
2017-06-20T01:29:19.655Z,90.50
2017-06-20T01:31:47.974Z,90.60
2017-06-20T01:34:17.337Z,90.60
2017-06-20T01:36:59.764Z,90.70
2017-06-20T01:39:34.707Z,90.70
2017-06-20T01:42:03.118Z,90.90
2017-06-20T01:44:31.658Z,91.20
2017-06-20T01:47:01.259Z,91.20
2017-06-20T01:49:29.925Z,91.40
2017-06-20T01:51:58.404Z,91.40
2017-06-20T01:54:26.817Z,91.40
2017-06-20T01:56:55.492Z,91.70
2017-06-20T01:59:23.957Z,91.70
2017-06-20T02:01:53.395Z,91.70
2017-06-20T02:04:21.885Z,91.80
2017-06-20T02:06:50.432Z,91.90
2017-06-20T02:09:19.883Z,91.90
2017-06-20T02:11:48.638Z,91.80
2017-06-20T02:14:16.776Z,91.80
2017-06-20T02:16:45.342Z,91.80
2017-06-20T02:19:13.736Z,91.50
2017-06-20T02:21:41.327Z,91.50
2017-06-20T02:24:09.694Z,91.50
2017-06-20T02:26:37.249Z,91.50
2017-06-20T02:29:08.657Z,91.50
2017-06-20T02:31:38.127Z,91.60
2017-06-20T02:34:06.441Z,91.70
2017-06-20T02:36:34.872Z,91.90
2017-06-20T02:39:02.502Z,92.10
2017-06-20T02:41:30.957Z,92.20
2017-06-20T02:43:59.475Z,92.10
2017-06-20T02:46:28.906Z,92.20
2017-06-20T02:48:57.432Z,92.30
2017-06-20T02:51:25.956Z,92.30
2017-06-20T02:53:54.556Z,92.20
2017-06-20T02:56:22.995Z,92.10
2017-06-20T02:58:51.512Z,92.10
2017-06-20T03:01:27.103Z,92.10
2017-06-20T03:03:54.663Z,92.00
2017-06-20T03:06:22.284Z,92.00
2017-06-20T03:08:51.732Z,92.10
2017-06-20T03:11:19.312Z,92.20
2017-06-20T03:13:47.841Z,92.20
2017-06-20T03:16:16.392Z,92.10
2017-06-20T03:18:43.943Z,92.10
2017-06-20T03:21:14.321Z,92.10
2017-06-20T03:23:41.883Z,92.10
2017-06-20T03:26:10.430Z,91.90
2017-06-20T03:28:38.898Z,91.90
2017-06-20T03:31:07.553Z,92.00
2017-06-20T03:33:35.217Z,91.90
2017-06-20T03:36:04.262Z,91.80
2017-06-20T03:38:32.818Z,91.80
2017-06-20T03:41:01.257Z,91.80
2017-06-20T03:43:28.855Z,91.90
2017-06-20T03:45:58.181Z,91.80
2017-06-20T03:48:27.112Z,91.70
2017-06-20T03:50:55.248Z,91.70
2017-06-20T03:53:24.770Z,91.70
2017-06-20T03:55:53.180Z,91.30
2017-06-20T03:58:21.728Z,91.30
2017-06-20T04:00:50.170Z,91.10
2017-06-20T04:03:19.618Z,90.80
2017-06-20T04:05:48.138Z,90.50
2017-06-20T04:08:16.589Z,90.20
2017-06-20T04:10:46.129Z,90.20
2017-06-20T04:13:14.613Z,89.40
2017-06-20T04:15:43.081Z,89.10
2017-06-20T04:18:12.684Z,88.40
2017-06-20T04:20:41.197Z,88.40
2017-06-20T04:23:10.233Z,87.90
2017-06-20T04:25:38.756Z,87.80
2017-06-20T04:28:07.344Z,86.70
2017-06-20T04:30:35.694Z,85.80
2017-06-20T04:33:04.427Z,85.80
2017-06-20T04:35:32.781Z,84.40
2017-06-20T04:38:00.593Z,84.40
2017-06-20T04:40:29.157Z,83.20
2017-06-20T04:42:59.068Z,83.00
2017-06-20T04:45:27.481Z,83.00
2017-06-20T04:47:55.808Z,82.80
2017-06-20T04:50:23.647Z,82.70
2017-06-20T04:52:52.089Z,82.00
2017-06-20T04:55:20.606Z,81.10
2017-06-20T04:57:56.273Z,80.30
2017-06-20T05:00:23.813Z,79.80
2017-06-20T05:02:52.251Z,79.10
2017-06-20T05:05:20.805Z,79.00
2017-06-20T05:07:49.356Z,78.70
2017-06-20T05:10:24.973Z,78.60
2017-06-20T05:12:53.407Z,77.80
2017-06-20T05:15:22.041Z,75.40
2017-06-20T05:17:58.551Z,75.30
2017-06-20T05:20:27.069Z,74.20
2017-06-20T05:22:55.503Z,75.10
2017-06-20T05:25:31.110Z,74.80
2017-06-20T05:27:58.670Z,73.30
2017-06-20T05:30:27.112Z,71.40
2017-06-20T05:32:56.547Z,72.40
2017-06-20T05:35:25.049Z,71.00
2017-06-20T05:37:53.508Z,71.10
2017-06-20T05:40:21.847Z,69.90
2017-06-20T05:42:49.564Z,69.90
2017-06-20T05:45:17.132Z,65.60
2017-06-20T05:47:46.577Z,63.70
2017-06-20T05:50:14.189Z,63.20
2017-06-20T05:52:42.521Z,61.20
2017-06-20T05:55:10.083Z,61.10
2017-06-20T05:57:37.791Z,59.70
2017-06-20T06:00:05.343Z,59.50
2017-06-20T06:02:34.811Z,57.60
2017-06-20T06:05:04.188Z,56.80
2017-06-20T06:07:32.683Z,55.10
2017-06-20T06:10:01.248Z,55.20
2017-06-20T06:12:36.984Z,57.40
2017-06-20T06:15:05.464Z,57.40
2017-06-20T06:17:33.011Z,56.30
2017-06-20T06:20:02.421Z,56.80
2017-06-20T06:22:30.928Z,57.40
2017-06-20T06:24:59.475Z,58.70
2017-06-20T06:27:28.072Z,58.80
2017-06-20T06:29:57.510Z,58.70
2017-06-20T06:32:25.074Z,57.60
2017-06-20T06:35:01.579Z,57.20
2017-06-20T06:37:30.148Z,57.30
2017-06-20T06:39:58.566Z,58.20
2017-06-20T06:42:27.043Z,58.10
2017-06-20T06:44:54.615Z,59.40
2017-06-20T06:47:22.937Z,60.70
2017-06-20T06:49:51.585Z,61.50
2017-06-20T06:52:40.031Z,60.50
2017-06-20T06:55:07.592Z,60.30
2017-06-20T06:57:35.308Z,60.40
2017-06-20T07:00:02.872Z,60.70
2017-06-20T07:02:31.584Z,61.60
2017-06-20T07:04:59.219Z,59.10
2017-06-20T07:07:28.648Z,58.60
2017-06-20T07:09:56.197Z,55.00
2017-06-20T07:12:24.720Z,54.20
2017-06-20T07:14:53.055Z,51.40
2017-06-20T07:17:20.796Z,51.40
2017-06-20T07:19:48.370Z,50.80
2017-06-20T07:22:17.856Z,49.80
2017-06-20T07:24:46.394Z,49.30
2017-06-20T07:27:14.899Z,48.70
2017-06-20T07:29:45.363Z,46.10
2017-06-20T07:32:13.775Z,46.00
2017-06-20T07:34:42.302Z,45.00
2017-06-20T07:37:10.660Z,45.00
2017-06-20T07:39:38.269Z,44.90
2017-06-20T07:42:15.850Z,45.90
2017-06-20T07:44:44.345Z,44.60
2017-06-20T07:47:11.949Z,44.60
2017-06-20T07:49:48.488Z,44.00
2017-06-20T07:52:29.852Z,43.00
2017-06-20T07:54:59.780Z,41.40
2017-06-20T07:57:28.266Z,41.30
2017-06-20T07:59:56.606Z,40.80
2017-06-20T08:02:24.273Z,40.70
2017-06-20T08:04:59.835Z,41.60
2017-06-20T08:07:28.283Z,40.50
2017-06-20T08:09:55.852Z,39.80
2017-06-20T08:12:24.306Z,40.20
2017-06-20T08:14:59.946Z,38.30
2017-06-20T08:17:28.972Z,39.70
2017-06-20T08:19:56.637Z,39.40
2017-06-20T08:22:24.262Z,38.50
2017-06-20T08:24:52.556Z,40.70
2017-06-20T08:27:20.346Z,40.30
2017-06-20T08:29:49.808Z,37.90
2017-06-20T08:32:18.564Z,39.00
2017-06-20T08:34:46.897Z,36.50
2017-06-20T08:37:20.428Z,36.30
2017-06-20T08:39:49.895Z,36.20
2017-06-20T08:42:18.417Z,34.40
2017-06-20T08:44:55.056Z,34.40
2017-06-20T08:47:23.646Z,34.60
2017-06-20T08:49:52.280Z,33.30
2017-06-20T08:52:21.835Z,33.00
2017-06-20T08:54:49.509Z,34.60
2017-06-20T08:57:17.844Z,34.90
2017-06-20T08:59:54.486Z,34.70
2017-06-20T09:02:23.074Z,33.00
2017-06-20T09:04:51.473Z,31.80
2017-06-20T09:07:19.022Z,33.00
2017-06-20T09:09:47.406Z,32.20
2017-06-20T09:12:16.108Z,30.70
2017-06-20T09:14:44.433Z,30.70
2017-06-20T09:17:20.077Z,32.80
2017-06-20T09:19:48.457Z,30.80
2017-06-20T09:22:16.970Z,31.90
2017-06-20T09:24:53.654Z,34.10
2017-06-20T09:27:21.249Z,33.60
2017-06-20T09:29:48.831Z,32.00
2017-06-20T09:32:17.422Z,31.80
2017-06-20T09:34:45.830Z,32.10
2017-06-20T09:37:14.345Z,33.00
2017-06-20T09:39:42.711Z,33.00
2017-06-20T09:42:11.870Z,32.90
2017-06-20T09:44:39.430Z,31.20
2017-06-20T09:47:07.019Z,29.70
2017-06-20T09:49:35.147Z,29.40
2017-06-20T09:52:03.459Z,29.30
2017-06-20T09:54:31.073Z,30.60
2017-06-20T09:56:59.440Z,29.30
2017-06-20T09:59:27.792Z,29.20
2017-06-20T10:01:56.319Z,28.80
2017-06-20T10:04:24.681Z,29.40
2017-06-20T10:06:53.840Z,29.40
2017-06-20T10:09:35.140Z,29.80
2017-06-20T10:12:05.997Z,28.00
2017-06-20T10:14:34.428Z,28.90
2017-06-20T10:17:02.870Z,27.80
2017-06-20T10:19:30.463Z,28.40
2017-06-20T10:21:58.271Z,28.80
2017-06-20T10:24:25.981Z,27.40
2017-06-20T10:26:53.858Z,28.30
2017-06-20T10:29:22.349Z,29.00
2017-06-20T10:31:50.704Z,28.60
2017-06-20T10:34:18.473Z,28.00
2017-06-20T10:36:59.600Z,29.20
2017-06-20T10:39:27.171Z,28.60
2017-06-20T10:42:03.105Z,28.10
2017-06-20T10:44:30.691Z,28.90
2017-06-20T10:46:59.102Z,29.00
2017-06-20T10:49:27.620Z,29.00
2017-06-20T10:51:55.177Z,28.40
2017-06-20T10:54:23.707Z,29.90
2017-06-20T10:57:05.837Z,29.10
2017-06-20T10:59:33.910Z,29.10
2017-06-20T11:02:01.446Z,29.60
2017-06-20T11:04:31.728Z,29.00
2017-06-20T11:07:00.256Z,28.10
2017-06-20T11:09:28.740Z,27.70
2017-06-20T11:11:57.072Z,29.30
2017-06-20T11:14:24.962Z,29.30
2017-06-20T11:16:54.175Z,28.40
2017-06-20T11:19:23.722Z,29.30
2017-06-20T11:21:52.236Z,29.50
2017-06-20T11:24:20.792Z,29.10
2017-06-20T11:26:48.398Z,30.40
2017-06-20T11:29:16.734Z,29.50
2017-06-20T11:31:45.224Z,28.30
2017-06-20T11:34:14.689Z,28.50
2017-06-20T11:36:43.210Z,28.60
2017-06-20T11:39:11.960Z,27.70
2017-06-20T11:41:41.250Z,28.60
2017-06-20T11:46:49.132Z,28.10
2017-06-20T11:49:18.180Z,28.60
2017-06-20T11:51:47.627Z,28.60
2017-06-20T11:54:16.097Z,28.30
2017-06-20T11:56:44.716Z,27.10
2017-06-20T11:59:13.292Z,26.70
2017-06-20T12:01:43.842Z,26.30
2017-06-20T12:04:12.296Z,27.20
2017-06-20T12:06:40.676Z,27.20
2017-06-20T12:09:09.186Z,27.20
2017-06-20T12:11:37.708Z,27.50
2017-06-20T12:14:10.223Z,27.40
2017-06-20T12:16:37.828Z,28.60
2017-06-20T12:19:06.177Z,29.90
2017-06-20T12:21:34.702Z,31.60
2017-06-20T12:24:03.188Z,31.50
2017-06-20T12:26:30.748Z,32.40
2017-06-20T12:29:06.103Z,30.20
2017-06-20T12:31:47.479Z,29.80
2017-06-20T12:34:15.928Z,31.60
2017-06-20T12:36:44.239Z,30.80
2017-06-20T12:39:12.419Z,30.80
2017-06-20T12:41:40.011Z,33.50
2017-06-20T12:44:08.334Z,31.90
2017-06-20T12:46:36.782Z,33.10
2017-06-20T12:49:05.277Z,32.20
2017-06-20T12:51:33.722Z,32.60
2017-06-20T12:54:01.347Z,33.10
2017-06-20T12:56:29.730Z,34.40
2017-06-20T12:59:00.020Z,34.40
2017-06-20T13:01:32.330Z,34.30
2017-06-20T13:04:01.386Z,34.00
2017-06-20T13:06:28.954Z,34.00
2017-06-20T13:09:03.917Z,34.60
2017-06-20T13:11:32.439Z,34.70
2017-06-20T13:13:59.995Z,34.70
2017-06-20T13:16:35.658Z,34.20
2017-06-20T13:19:04.080Z,35.70
2017-06-20T13:21:39.788Z,35.80
2017-06-20T13:24:07.340Z,35.00
2017-06-20T13:26:35.891Z,37.80
2017-06-20T13:29:04.439Z,37.20
2017-06-20T13:31:32.904Z,35.60
2017-06-20T13:34:00.533Z,35.60
2017-06-20T13:36:28.864Z,35.10
2017-06-20T13:38:56.428Z,36.90
2017-06-20T13:41:31.975Z,37.00
2017-06-20T13:44:00.480Z,37.10
2017-06-20T13:46:28.037Z,35.50
2017-06-20T13:48:56.508Z,36.40
2017-06-20T13:51:25.115Z,34.40
2017-06-20T13:53:53.567Z,33.30
2017-06-20T13:56:21.188Z,31.60
2017-06-20T13:58:57.713Z,31.60
2017-06-20T14:01:25.306Z,31.40
2017-06-20T14:03:53.738Z,32.20
2017-06-20T14:06:22.092Z,34.50
2017-06-20T14:08:58.793Z,34.50
2017-06-20T14:11:27.851Z,35.90
2017-06-20T14:13:56.871Z,35.90
2017-06-20T14:16:24.481Z,37.40
2017-06-20T14:18:53.891Z,40.70
2017-06-20T14:21:23.342Z,39.30
2017-06-20T14:23:51.892Z,41.70
2017-06-20T14:26:21.659Z,41.70
2017-06-20T14:28:49.286Z,42.60
2017-06-20T14:31:20.481Z,43.50
2017-06-20T14:33:48.862Z,49.90
2017-06-20T14:36:17.211Z,53.30
2017-06-20T14:38:45.223Z,53.40
2017-06-20T14:41:13.553Z,56.90
2017-06-20T14:43:41.182Z,56.90
2017-06-20T14:46:09.627Z,57.30
2017-06-20T14:48:37.327Z,57.30
2017-06-20T14:51:05.997Z,52.00
2017-06-20T14:53:34.465Z,51.90
2017-06-20T14:56:03.011Z,47.70
2017-06-20T14:58:31.005Z,41.80
2017-06-20T15:00:58.602Z,38.70
2017-06-20T15:03:26.700Z,38.30
2017-06-20T15:05:55.091Z,37.30
2017-06-20T15:08:22.711Z,37.20
2017-06-20T15:10:51.247Z,31.80
2017-06-20T15:13:18.832Z,32.90
2017-06-20T15:15:47.381Z,30.00
2017-06-20T15:18:14.955Z,30.10
2017-06-20T15:21:04.265Z,28.40
2017-06-20T15:23:31.830Z,28.40
2017-06-20T15:25:59.661Z,28.40
2017-06-20T15:28:28.359Z,29.10
2017-06-20T15:30:56.059Z,27.70
2017-06-20T15:33:31.330Z,28.10
2017-06-20T15:36:06.923Z,28.70
2017-06-20T15:38:36.178Z,28.00
2017-06-20T15:41:03.861Z,27.00
2017-06-20T15:43:32.240Z,27.10
2017-06-20T15:46:08.031Z,27.10
2017-06-20T15:48:49.360Z,26.80
2017-06-20T15:51:17.214Z,25.70
2017-06-20T15:53:45.627Z,25.90
2017-06-20T15:56:14.042Z,28.40
2017-06-20T15:58:41.613Z,28.40
2017-06-20T16:01:09.218Z,29.50
2017-06-20T16:03:36.807Z,29.20
2017-06-20T16:06:05.150Z,25.70
2017-06-20T16:08:32.712Z,25.60
2017-06-20T16:11:01.367Z,25.70
2017-06-20T16:13:29.788Z,25.70
2017-06-20T16:15:57.364Z,26.30
2017-06-20T16:18:24.981Z,26.30
2017-06-20T16:20:52.556Z,27.40
2017-06-20T16:23:21.064Z,28.10
2017-06-20T16:25:50.288Z,28.60
2017-06-20T16:28:17.842Z,27.40
2017-06-20T16:30:46.396Z,27.40
2017-06-20T16:33:13.983Z,27.80
2017-06-20T16:35:41.523Z,27.90
2017-06-20T16:38:09.083Z,26.50
2017-06-20T16:40:38.519Z,25.70
2017-06-20T16:43:06.959Z,26.00
2017-06-20T16:45:35.424Z,29.40
2017-06-20T16:48:04.039Z,29.00
2017-06-20T16:50:32.465Z,31.80
2017-06-20T16:53:00.877Z,32.00
2017-06-20T16:55:30.130Z,32.90
2017-06-20T16:57:57.713Z,34.20
2017-06-20T17:00:32.595Z,34.40
2017-06-20T17:03:00.932Z,35.30
2017-06-20T17:05:28.496Z,35.20
2017-06-20T17:07:56.984Z,36.40
2017-06-20T17:10:25.323Z,36.80
2017-06-20T17:12:52.928Z,36.80
2017-06-20T17:15:21.268Z,37.60
2017-06-20T17:17:49.835Z,38.80
2017-06-20T17:20:18.162Z,39.40
2017-06-20T17:22:46.926Z,39.30
2017-06-20T17:25:15.407Z,42.20
2017-06-20T17:27:43.763Z,42.00
2017-06-20T17:30:12.509Z,41.80
2017-06-20T17:32:40.718Z,41.50
2017-06-20T17:35:08.295Z,40.20
2017-06-20T17:37:37.241Z,40.60
2017-06-20T17:40:04.827Z,41.30
2017-06-20T17:42:33.368Z,42.00
2017-06-20T17:45:01.914Z,43.40
2017-06-20T17:47:29.445Z,43.80
2017-06-20T17:49:57.743Z,43.50
2017-06-20T17:52:26.268Z,44.70
2017-06-20T17:54:53.814Z,44.80
2017-06-20T17:57:22.209Z,44.40
2017-06-20T17:59:50.759Z,46.10
2017-06-20T18:02:19.255Z,47.30
2017-06-20T18:04:46.773Z,48.60
2017-06-20T18:07:15.104Z,49.30
2017-06-20T18:09:42.633Z,49.30
2017-06-20T18:12:10.924Z,51.70
2017-06-20T18:14:38.483Z,51.60
2017-06-20T18:17:06.772Z,52.80
2017-06-20T18:19:34.301Z,52.70
2017-06-20T18:22:02.876Z,52.40
2017-06-20T18:24:30.718Z,53.10
2017-06-20T18:26:58.296Z,53.50
2017-06-20T18:29:25.886Z,55.80
2017-06-20T18:31:54.131Z,54.20
2017-06-20T18:34:21.682Z,54.50
2017-06-20T18:36:49.226Z,54.60
2017-06-20T18:39:16.774Z,56.10
2017-06-20T18:41:45.088Z,56.90
2017-06-20T18:44:12.736Z,56.90
2017-06-20T18:46:40.308Z,56.80
2017-06-20T18:49:07.883Z,57.60
2017-06-20T18:51:35.445Z,57.80
2017-06-20T18:54:03.005Z,57.20
2017-06-20T18:56:31.007Z,57.80
2017-06-20T18:58:58.582Z,59.20
2017-06-20T19:01:26.168Z,60.10
2017-06-20T19:03:53.730Z,61.30
2017-06-20T19:06:23.369Z,62.50
2017-06-20T19:09:31.985Z,69.10
2017-06-20T19:11:59.707Z,68.90
2017-06-20T19:14:27.273Z,70.80
2017-06-20T19:16:54.930Z,71.80
2017-06-20T19:19:25.131Z,68.20
2017-06-20T19:21:54.371Z,72.50
2017-06-20T19:24:32.917Z,76.80
2017-06-20T19:30:25.196Z,80.60
2017-06-20T19:36:57.291Z,84.30
2017-06-20T19:39:26.743Z,85.70
2017-06-20T19:41:55.745Z,86.50
2017-06-20T19:47:30.774Z,88.10
2017-06-20T19:49:59.437Z,89.90
2017-06-20T19:52:28.982Z,89.70
2017-06-20T19:55:04.454Z,89.80
2017-06-20T20:00:37.976Z,90.00
2017-06-20T20:10:31.063Z,90.10
2017-06-20T20:13:16.925Z,90.30
2017-06-20T20:15:52.359Z,90.20
2017-06-20T20:21:43.146Z,90.90
2017-06-20T20:24:12.488Z,91.10
2017-06-20T20:37:25.953Z,91.70
2017-06-20T20:39:54.559Z,91.50
2017-06-20T20:52:36.846Z,92.50
2017-06-20T20:59:10.214Z,92.80
2017-06-20T21:05:21.167Z,92.30
2017-06-20T21:07:50.745Z,92.90
2017-06-20T21:10:20.407Z,93.00
2017-06-20T21:20:11.235Z,92.90
2017-06-20T21:23:29.556Z,93.00
2017-06-20T21:33:01.645Z,93.20
2017-06-20T21:35:44.776Z,93.50
2017-06-20T21:38:13.203Z,93.30
2017-06-20T21:40:41.665Z,93.00
2017-06-20T21:43:11.723Z,93.20
2017-06-20T21:45:39.729Z,93.20
2017-06-20T21:48:07.451Z,92.90
2017-06-20T21:50:36.590Z,93.10
2017-06-20T21:53:05.215Z,93.30
2017-06-20T21:55:33.716Z,93.20
2017-06-20T21:58:02.156Z,93.20
2017-06-20T22:00:30.553Z,93.00
2017-06-20T22:02:59.059Z,93.00
2017-06-20T22:05:27.717Z,92.80
2017-06-20T22:07:57.093Z,92.90
2017-06-20T22:10:26.550Z,92.80
2017-06-20T22:12:54.928Z,92.90
2017-06-20T22:15:23.621Z,92.90
2017-06-20T22:17:53.044Z,92.70
2017-06-20T22:20:21.581Z,92.70
2017-06-20T22:22:50.121Z,92.30
2017-06-20T22:25:26.651Z,92.30
2017-06-20T22:27:55.070Z,92.40
2017-06-20T22:30:23.878Z,92.40
2017-06-20T22:32:53.178Z,92.60
2017-06-20T22:35:21.597Z,92.10
2017-06-20T22:37:50.114Z,91.60
2017-06-20T22:40:17.741Z,91.50
2017-06-20T22:42:46.083Z,91.30
2017-06-20T22:45:14.496Z,91.40
2017-06-20T22:47:42.159Z,91.50
2017-06-20T22:54:12.552Z,90.70
2017-06-20T22:56:40.430Z,90.70
2017-06-20T22:59:08.674Z,90.90
2017-06-20T23:01:38.233Z,90.90
2017-06-20T23:04:05.829Z,91.10
2017-06-20T23:06:42.189Z,91.20
2017-06-20T23:09:10.722Z,91.20
2017-06-20T23:11:42.262Z,91.10
2017-06-20T23:14:11.762Z,90.60
2017-06-20T23:16:40.200Z,90.90
2017-06-20T23:19:08.669Z,90.90
2017-06-20T23:21:36.287Z,91.00
2017-06-20T23:24:05.762Z,91.10
2017-06-20T23:26:33.354Z,90.80
2017-06-20T23:29:01.707Z,90.90
2017-06-20T23:31:31.169Z,91.20
2017-06-20T23:33:59.674Z,90.90
2017-06-20T23:36:28.240Z,90.90
2017-06-20T23:38:56.721Z,90.90
2017-06-20T23:41:25.141Z,91.50
2017-06-20T23:43:54.698Z,91.40
2017-06-20T23:46:23.136Z,91.50
2017-06-20T23:48:50.825Z,91.50
2017-06-20T23:51:19.209Z,91.40
2017-06-20T23:53:47.659Z,91.60
2017-06-20T23:56:16.187Z,91.50
2017-06-20T23:58:45.615Z,91.80
